Time;durP1;ratioP1;P1;durP2;ratioP2;P2;SDS_P1;SDS_P2;PMS_P1;PMS_P2;Temp;Humidity;BMP_temperature;BMP_pressure;BME280_temperature;BME280_humidity;BME280_pressure;Samples;Min_cycle;Max_cycle;Signal;HPM_P1;HPM_P2
2021/12/08 00:01:26;;;;;;;5.00;3.20;;;2.90;99.90;;;;;;5067462;28;20473;-66
2021/12/08 00:03:53;;;;;;;4.87;3.67;;;2.90;99.90;;;;;;5067532;28;21040;-66
2021/12/08 00:06:21;;;;;;;6.23;3.00;;;3.10;99.90;;;;;;5067347;28;20455;-66
2021/12/08 00:08:50;;;;;;;5.93;2.60;;;3.10;99.90;;;;;;5067534;28;20458;-66
2021/12/08 00:14:04;;;;;;;4.90;2.70;;;3.20;99.90;;;;;;5067523;28;20952;-66
2021/12/08 00:16:30;;;;;;;4.60;2.90;;;3.30;99.90;;;;;;5067006;28;20482;-66
2021/12/08 00:18:59;;;;;;;4.00;2.70;;;3.30;99.90;;;;;;5067421;28;21274;-67
2021/12/08 00:21:27;;;;;;;4.03;2.63;;;3.30;99.90;;;;;;5067201;28;20475;-67
2021/12/08 00:23:54;;;;;;;4.57;2.97;;;3.30;99.90;;;;;;5071852;28;20454;-65
2021/12/08 00:26:23;;;;;;;4.17;2.20;;;3.40;99.90;;;;;;5071266;28;20823;-67
2021/12/08 00:28:49;;;;;;;4.47;3.17;;;3.50;99.90;;;;;;5071505;28;20477;-67
2021/12/08 00:31:17;;;;;;;6.13;2.80;;;3.40;99.90;;;;;;5071170;28;20470;-66
2021/12/08 00:33:46;;;;;;;6.43;2.70;;;3.40;99.90;;;;;;5071324;28;20605;-67
2021/12/08 00:36:15;;;;;;;5.23;2.63;;;3.40;99.90;;;;;;5071395;28;20928;-67
2021/12/08 00:38:42;;;;;;;4.10;2.80;;;3.40;99.90;;;;;;5071210;28;20447;-66
2021/12/08 00:41:10;;;;;;;5.20;3.00;;;3.40;99.90;;;;;;5071105;28;21080;-66
2021/12/08 00:43:40;;;;;;;6.17;3.00;;;3.30;99.90;;;;;;5071193;28;20533;-68
2021/12/08 00:46:08;;;;;;;6.40;3.07;;;3.30;99.90;;;;;;5071102;28;20534;-67
2021/12/08 00:48:35;;;;;;;3.93;2.73;;;3.20;99.90;;;;;;5070759;28;20456;-67
2021/12/08 00:51:02;;;;;;;4.93;2.60;;;3.20;99.90;;;;;;5071389;28;20478;-67
2021/12/08 00:53:29;;;;;;;3.43;2.50;;;3.10;99.90;;;;;;5070765;28;21011;-66
2021/12/08 00:55:56;;;;;;;3.40;2.30;;;3.00;99.90;;;;;;5071108;28;20455;-65
2021/12/08 00:58:24;;;;;;;3.03;1.90;;;3.00;99.90;;;;;;5070610;28;20450;-66
2021/12/08 01:00:54;;;;;;;4.17;2.30;;;3.00;99.90;;;;;;5070754;28;20569;-67
2021/12/08 01:03:22;;;;;;;3.87;2.20;;;3.00;99.90;;;;;;5071156;28;20833;-66
2021/12/08 01:05:52;;;;;;;3.90;2.13;;;2.90;99.90;;;;;;5071275;28;20555;-65
2021/12/08 01:08:20;;;;;;;4.87;2.70;;;2.90;99.90;;;;;;5070644;28;20546;-66
2021/12/08 01:10:50;;;;;;;6.03;2.70;;;3.00;99.90;;;;;;5070800;28;20550;-67
2021/12/08 01:13:18;;;;;;;6.47;3.20;;;2.90;99.90;;;;;;5070696;28;20840;-67
2021/12/08 01:15:47;;;;;;;5.33;2.80;;;2.90;99.90;;;;;;5071131;28;20446;-67
2021/12/08 01:18:17;;;;;;;7.97;3.23;;;2.90;99.90;;;;;;5070480;28;20439;-66
2021/12/08 01:20:45;;;;;;;3.53;2.10;;;2.90;99.90;;;;;;5071010;28;20473;-66
2021/12/08 01:23:12;;;;;;;6.43;3.00;;;2.80;99.90;;;;;;5070646;28;20454;-64
2021/12/08 01:25:39;;;;;;;4.70;3.63;;;2.80;99.90;;;;;;5070369;28;20450;-65
2021/12/08 01:28:06;;;;;;;6.30;2.97;;;2.70;99.90;;;;;;5070018;28;20451;-66
2021/12/08 01:30:33;;;;;;;7.03;3.33;;;2.60;99.90;;;;;;5070336;28;20902;-66
2021/12/08 01:33:01;;;;;;;5.40;3.00;;;2.60;99.90;;;;;;5070395;28;21209;-66
2021/12/08 01:35:29;;;;;;;5.63;3.60;;;2.60;99.90;;;;;;5071911;28;20458;-66
2021/12/08 01:37:56;;;;;;;3.67;3.07;;;2.60;99.90;;;;;;5071719;28;20451;-66
2021/12/08 01:40:23;;;;;;;7.27;3.67;;;2.50;99.90;;;;;;5071319;28;20474;-66
2021/12/08 01:42:53;;;;;;;4.80;2.90;;;2.50;99.90;;;;;;5070907;28;20460;-65
2021/12/08 01:48:12;;;;;;;4.73;3.03;;;2.30;99.90;;;;;;5069946;28;20425;-67
2021/12/08 01:50:42;;;;;;;6.70;3.70;;;2.10;99.90;;;;;;5070104;28;20566;-66
2021/12/08 01:53:10;;;;;;;6.23;3.40;;;2.20;99.90;;;;;;5070126;28;20489;-66
2021/12/08 01:55:40;;;;;;;6.23;3.50;;;2.20;99.90;;;;;;5070546;28;20461;-66
2021/12/08 01:58:09;;;;;;;7.20;4.67;;;2.20;99.90;;;;;;5067588;28;20447;-66
2021/12/08 02:00:38;;;;;;;6.10;4.10;;;2.30;99.90;;;;;;5070697;28;20469;-65
2021/12/08 02:03:06;;;;;;;6.53;4.07;;;2.40;99.90;;;;;;5069426;28;20457;-65
2021/12/08 02:05:34;;;;;;;5.13;3.67;;;2.50;99.90;;;;;;5069919;28;20447;-66
2021/12/08 02:08:03;;;;;;;5.00;4.33;;;2.50;99.90;;;;;;5069608;28;20978;-64
2021/12/08 02:10:30;;;;;;;7.57;3.83;;;2.60;99.90;;;;;;5069942;28;20464;-66
2021/12/08 02:12:57;;;;;;;5.53;3.50;;;2.60;99.90;;;;;;5069482;28;20488;-65
2021/12/08 02:15:24;;;;;;;5.00;3.67;;;2.60;99.90;;;;;;5069692;28;20460;-66
2021/12/08 02:17:53;;;;;;;3.77;3.10;;;2.60;99.90;;;;;;5069002;28;20456;-65
2021/12/08 02:20:22;;;;;;;5.70;3.70;;;2.50;99.90;;;;;;5069554;28;20470;-65
2021/12/08 02:22:50;;;;;;;5.10;3.53;;;2.50;99.90;;;;;;5069523;28;20451;-65
2021/12/08 02:25:23;;;;;;;7.70;3.60;;;2.60;99.90;;;;;;5069837;28;20455;-66
2021/12/08 02:27:51;;;;;;;7.93;3.80;;;2.70;99.90;;;;;;5069083;28;20450;-66
2021/12/08 02:30:25;;;;;;;3.57;3.00;;;2.70;99.90;;;;;;5069305;28;21054;-65
2021/12/08 02:46:49;;;;;;;4.20;2.80;;;2.80;99.90;;;;;;5068686;28;20425;-67
2021/12/08 02:49:18;;;;;;;5.50;2.97;;;2.80;99.90;;;;;;5068898;28;20450;-67
2021/12/08 02:51:46;;;;;;;4.10;2.67;;;2.80;99.90;;;;;;5069008;28;21118;-66
2021/12/08 02:54:15;;;;;;;4.60;2.90;;;2.80;99.90;;;;;;5068873;28;20483;-70
2021/12/08 02:56:42;;;;;;;6.43;2.83;;;2.80;99.90;;;;;;5068715;28;20818;-66
2021/12/08 02:59:09;;;;;;;8.83;3.00;;;2.90;99.90;;;;;;5068673;28;20442;-66
2021/12/08 03:01:37;;;;;;;4.90;2.77;;;2.90;99.90;;;;;;5068510;28;20966;-67
2021/12/08 03:04:05;;;;;;;3.27;2.50;;;2.80;99.90;;;;;;5069132;28;20531;-67
2021/12/08 03:06:33;;;;;;;6.43;3.10;;;2.90;99.90;;;;;;5068181;28;20461;-66
2021/12/08 03:09:01;;;;;;;4.47;3.23;;;2.80;99.90;;;;;;5068686;28;20454;-66
2021/12/08 03:11:29;;;;;;;8.00;4.17;;;2.80;99.90;;;;;;5068443;28;20483;-66
2021/12/08 03:14:03;;;;;;;5.77;3.70;;;2.80;99.90;;;;;;5068550;28;20486;-66
2021/12/08 03:16:30;;;;;;;6.23;3.33;;;2.80;99.90;;;;;;5068445;28;20761;-66
2021/12/08 03:18:57;;;;;;;4.73;3.00;;;2.80;99.90;;;;;;5068576;28;20453;-67
2021/12/08 03:21:29;;;;;;;6.67;3.37;;;2.80;99.90;;;;;;5068358;28;20466;-66
2021/12/08 03:24:08;;;;;;;4.50;3.47;;;2.90;99.90;;;;;;5068650;28;20980;-66
2021/12/08 03:26:45;;;;;;;7.20;3.50;;;2.90;99.90;;;;;;5068288;28;20507;-67
2021/12/08 03:29:21;;;;;;;3.60;3.07;;;2.90;99.90;;;;;;5069765;28;20446;-67
2021/12/08 03:31:51;;;;;;;4.77;3.27;;;2.90;99.90;;;;;;5069960;28;20541;-66
2021/12/08 03:34:20;;;;;;;5.20;3.37;;;2.90;99.90;;;;;;5070114;28;20967;-66
2021/12/08 03:36:47;;;;;;;4.37;2.90;;;2.90;99.90;;;;;;5069038;28;20454;-66
2021/12/08 03:39:14;;;;;;;7.20;3.67;;;2.80;99.90;;;;;;5069034;28;20450;-65
2021/12/08 03:41:43;;;;;;;8.43;3.40;;;2.90;99.90;;;;;;5068110;28;20454;-65
2021/12/08 03:44:10;;;;;;;4.07;3.20;;;2.90;99.90;;;;;;5067953;28;20541;-65
2021/12/08 03:46:41;;;;;;;5.73;3.20;;;2.90;99.90;;;;;;5067927;28;21098;-65
2021/12/08 03:49:11;;;;;;;5.40;2.80;;;2.90;99.90;;;;;;5067889;28;20462;-66
2021/12/08 03:51:39;;;;;;;5.97;3.50;;;3.00;99.90;;;;;;5068362;28;20834;-65
2021/12/08 03:54:06;;;;;;;3.30;2.30;;;3.00;99.90;;;;;;5068338;28;20843;-66
2021/12/08 03:56:33;;;;;;;3.77;2.60;;;3.00;99.90;;;;;;5067398;28;20447;-65
2021/12/08 03:59:02;;;;;;;4.20;3.00;;;3.00;99.90;;;;;;5068547;28;20446;-65
2021/12/08 04:01:29;;;;;;;4.90;3.57;;;3.10;99.90;;;;;;5068634;28;20462;-66
2021/12/08 04:04:01;;;;;;;4.40;2.90;;;3.10;99.90;;;;;;5068233;28;20461;-66
2021/12/08 04:06:31;;;;;;;4.20;2.70;;;3.10;99.90;;;;;;5068107;28;21182;-65
2021/12/08 04:09:02;;;;;;;6.77;3.53;;;3.20;99.90;;;;;;5067828;28;20534;-66
2021/12/08 04:11:29;;;;;;;5.40;3.23;;;3.30;99.90;;;;;;5067837;28;20465;-66
2021/12/08 04:13:59;;;;;;;4.27;3.60;;;3.30;99.90;;;;;;5068052;28;20485;-66
2021/12/08 04:16:33;;;;;;;5.97;3.03;;;3.30;99.90;;;;;;5067549;28;20439;-65
2021/12/08 04:19:00;;;;;;;3.67;2.60;;;3.40;99.90;;;;;;5067754;28;20435;-65
2021/12/08 04:21:29;;;;;;;4.20;3.13;;;3.40;99.90;;;;;;5067864;28;20475;-66
2021/12/08 04:23:57;;;;;;;5.27;3.40;;;3.40;99.90;;;;;;5067940;28;20458;-65
2021/12/08 04:26:27;;;;;;;4.27;2.73;;;3.50;99.90;;;;;;5067512;28;20439;-66
2021/12/08 04:28:55;;;;;;;9.73;3.50;;;3.50;99.90;;;;;;5067685;28;20438;-65
2021/12/08 04:31:28;;;;;;;4.00;2.60;;;3.50;99.90;;;;;;5067227;28;20815;-66
2021/12/08 04:34:00;;;;;;;5.53;4.03;;;3.50;99.90;;;;;;5067629;28;21213;-65
2021/12/08 04:36:31;;;;;;;7.30;4.20;;;3.50;99.90;;;;;;5067122;28;20442;-65
2021/12/08 04:39:02;;;;;;;5.13;3.73;;;3.40;99.90;;;;;;5067736;28;20448;-67
2021/12/08 04:41:36;;;;;;;10.23;3.43;;;3.40;99.90;;;;;;5067415;28;20524;-66
2021/12/08 04:44:11;;;;;;;5.50;3.93;;;3.50;99.90;;;;;;5067550;28;20445;-65
2021/12/08 04:46:59;;;;;;;5.67;4.10;;;3.60;99.90;;;;;;5067273;28;20461;-66
2021/12/08 04:49:52;;;;;;;5.37;4.33;;;3.60;99.90;;;;;;5067451;28;20445;-67
2021/12/08 04:52:27;;;;;;;7.27;5.27;;;3.60;99.90;;;;;;5067370;28;21082;-66
2021/12/08 05:00:57;;;;;;;6.20;4.27;;;3.70;99.90;;;;;;5067320;28;20457;-66
2021/12/08 05:03:44;;;;;;;4.60;4.20;;;3.70;99.90;;;;;;5067403;28;20479;-65
2021/12/08 05:06:23;;;;;;;4.90;3.97;;;3.70;99.90;;;;;;5067164;28;20501;-67
2021/12/08 05:08:54;;;;;;;5.90;4.83;;;3.70;99.90;;;;;;5063266;28;20538;-65
2021/12/08 05:11:24;;;;;;;5.93;4.90;;;3.70;99.90;;;;;;5070842;28;20455;-65
2021/12/08 05:13:56;;;;;;;6.97;4.93;;;3.80;99.90;;;;;;5070669;28;20474;-65
2021/12/08 05:16:23;;;;;;;8.90;5.10;;;3.80;99.90;;;;;;5070593;28;20907;-65
2021/12/08 05:18:53;;;;;;;6.53;5.50;;;3.90;99.90;;;;;;5070578;28;20450;-65
2021/12/08 05:21:25;;;;;;;6.73;4.87;;;3.90;99.90;;;;;;5070621;28;20470;-65
2021/12/08 05:23:54;;;;;;;8.23;5.43;;;3.70;99.90;;;;;;5070495;28;20453;-66
2021/12/08 05:26:31;;;;;;;8.30;6.00;;;3.80;99.90;;;;;;5070014;28;20534;-65
2021/12/08 05:29:01;;;;;;;5.70;5.10;;;3.80;99.90;;;;;;5070439;28;20454;-64
2021/12/08 05:31:31;;;;;;;9.47;5.80;;;3.80;99.90;;;;;;5070224;28;20468;-65
2021/12/08 05:34:00;;;;;;;6.70;5.10;;;3.90;99.90;;;;;;5070295;28;20581;-66
2021/12/08 05:36:27;;;;;;;8.30;5.73;;;3.90;99.90;;;;;;5070054;28;20464;-65
2021/12/08 05:38:57;;;;;;;7.27;5.40;;;3.90;99.90;;;;;;5071001;28;20786;-65
2021/12/08 05:41:27;;;;;;;8.50;6.40;;;4.00;99.90;;;;;;5070243;28;20469;-64
2021/12/08 05:43:54;;;;;;;7.10;6.00;;;4.00;99.90;;;;;;5070499;28;20443;-65
2021/12/08 05:46:24;;;;;;;8.40;6.27;;;4.00;99.90;;;;;;5069783;28;20444;-64
2021/12/08 05:48:51;;;;;;;9.90;7.00;;;4.00;99.90;;;;;;5070887;28;20521;-64
2021/12/08 05:51:23;;;;;;;8.07;6.40;;;4.10;99.90;;;;;;5070797;28;21269;-65
2021/12/08 05:53:52;;;;;;;9.30;6.73;;;4.10;99.90;;;;;;5069825;28;20491;-65
2021/12/08 05:56:20;;;;;;;9.30;6.70;;;4.10;99.90;;;;;;5069816;28;20427;-65
2021/12/08 05:58:48;;;;;;;10.40;8.40;;;4.00;99.90;;;;;;5066111;28;20456;-65
2021/12/08 06:01:19;;;;;;;9.83;7.83;;;4.10;99.90;;;;;;5066376;28;20460;-64
2021/12/08 06:03:47;;;;;;;9.87;7.37;;;4.10;99.90;;;;;;5069819;28;20452;-64
2021/12/08 06:06:14;;;;;;;7.67;6.37;;;4.10;99.90;;;;;;5069670;28;20542;-62
2021/12/08 06:08:43;;;;;;;8.63;7.20;;;4.10;99.90;;;;;;5068034;28;20441;-65
2021/12/08 06:11:11;;;;;;;9.97;7.57;;;4.20;99.90;;;;;;5068704;28;20471;-65
2021/12/08 06:13:40;;;;;;;10.20;8.30;;;4.10;99.90;;;;;;5069146;28;20448;-65
2021/12/08 06:16:08;;;;;;;8.80;7.87;;;4.20;99.90;;;;;;5069785;28;20812;-65
2021/12/08 06:18:39;;;;;;;10.40;8.07;;;4.20;99.90;;;;;;5069685;28;20591;-65
2021/12/08 06:21:08;;;;;;;10.50;7.27;;;4.20;99.90;;;;;;5068434;28;20478;-64
2021/12/08 06:23:37;;;;;;;11.90;7.60;;;4.20;99.90;;;;;;5065947;28;20516;-64
2021/12/08 06:26:05;;;;;;;10.90;7.60;;;4.20;99.90;;;;;;5069323;28;20447;-65
2021/12/08 06:28:33;;;;;;;7.90;6.33;;;4.20;99.90;;;;;;5068863;28;20444;-65
2021/12/08 06:31:00;;;;;;;9.80;6.70;;;4.30;99.90;;;;;;5069653;28;20474;-65
2021/12/08 06:33:27;;;;;;;9.63;6.97;;;4.20;99.90;;;;;;5066365;28;20454;-65
2021/12/08 06:35:57;;;;;;;8.10;6.07;;;4.20;99.90;;;;;;5066188;28;20482;-66
2021/12/08 06:38:25;;;;;;;7.53;6.10;;;4.20;99.90;;;;;;5068933;28;20443;-66
2021/12/08 06:40:57;;;;;;;7.47;6.23;;;4.20;99.90;;;;;;5067916;28;20466;-66
2021/12/08 06:43:28;;;;;;;11.10;5.63;;;4.30;99.90;;;;;;5069623;28;20447;-66
2021/12/08 06:45:59;;;;;;;9.17;6.07;;;4.30;99.90;;;;;;5069534;28;20456;-65
2021/12/08 06:48:29;;;;;;;6.50;5.73;;;4.30;99.90;;;;;;5069438;28;20650;-65
2021/12/08 06:51:01;;;;;;;11.07;5.73;;;4.30;99.90;;;;;;5069299;28;20472;-65
2021/12/08 06:53:30;;;;;;;9.10;6.53;;;4.40;99.90;;;;;;5068979;28;20999;-66
2021/12/08 06:56:01;;;;;;;9.93;5.80;;;4.40;99.90;;;;;;5068781;28;20478;-66
2021/12/08 06:58:34;;;;;;;8.80;6.00;;;4.40;99.90;;;;;;5068694;28;20446;-66
2021/12/08 07:01:15;;;;;;;7.30;5.60;;;4.40;99.90;;;;;;5068623;28;20922;-66
2021/12/08 07:03:50;;;;;;;9.83;6.40;;;4.40;99.90;;;;;;5068635;28;20452;-66
2021/12/08 07:06:41;;;;;;;8.47;6.63;;;4.40;99.90;;;;;;5068276;28;20504;-63
2021/12/08 07:09:11;;;;;;;8.53;7.10;;;4.40;99.90;;;;;;5068300;28;20451;-65
2021/12/08 07:11:39;;;;;;;8.73;6.10;;;4.40;99.90;;;;;;5068041;28;20516;-66
2021/12/08 07:14:08;;;;;;;9.87;8.00;;;4.40;99.90;;;;;;5068199;28;20447;-65
2021/12/08 07:16:37;;;;;;;10.30;7.27;;;4.40;99.90;;;;;;5067913;28;20448;-65
2021/12/08 07:19:10;;;;;;;10.97;7.97;;;4.40;99.90;;;;;;5067871;28;20452;-64
2021/12/08 07:21:41;;;;;;;11.77;8.40;;;4.40;99.90;;;;;;5067810;28;20454;-66
2021/12/08 07:24:13;;;;;;;13.47;9.67;;;4.40;99.90;;;;;;5067898;28;20545;-65
2021/12/08 07:26:41;;;;;;;12.57;9.77;;;4.40;99.90;;;;;;5067849;28;21086;-65
2021/12/08 07:29:13;;;;;;;14.30;11.03;;;4.30;99.90;;;;;;5067833;28;20553;-65
2021/12/08 07:31:44;;;;;;;17.17;11.67;;;4.30;99.90;;;;;;5067819;28;20908;-66
2021/12/08 07:34:17;;;;;;;14.17;10.83;;;4.30;99.90;;;;;;5067759;28;20833;-66
2021/12/08 07:36:46;;;;;;;11.57;9.70;;;4.30;99.90;;;;;;5067532;28;20451;-66
2021/12/08 07:39:16;;;;;;;15.30;11.30;;;4.30;99.90;;;;;;5067667;28;20454;-66
2021/12/08 07:41:48;;;;;;;17.63;10.80;;;4.30;99.90;;;;;;5068280;28;20451;-66
2021/12/08 07:44:17;;;;;;;12.60;9.63;;;4.30;99.90;;;;;;5067934;28;20451;-65
2021/12/08 07:46:48;;;;;;;14.83;10.00;;;4.30;99.90;;;;;;5067672;28;20455;-65
2021/12/08 07:49:20;;;;;;;12.47;10.57;;;4.40;99.90;;;;;;5067576;28;20546;-65
2021/12/08 07:51:51;;;;;;;18.43;10.43;;;4.40;99.90;;;;;;5067813;28;20457;-65
2021/12/08 07:54:19;;;;;;;12.70;10.37;;;4.40;99.90;;;;;;5067747;28;20452;-65
2021/12/08 07:56:49;;;;;;;12.40;9.80;;;4.40;99.90;;;;;;5067375;28;20454;-65
2021/12/08 07:59:20;;;;;;;12.67;9.43;;;4.50;99.90;;;;;;5067450;28;20802;-65
2021/12/08 08:01:51;;;;;;;12.37;9.77;;;4.50;99.90;;;;;;5067405;28;20901;-67
2021/12/08 08:04:22;;;;;;;10.00;9.00;;;4.50;99.90;;;;;;5067435;28;20460;-66
2021/12/08 08:06:52;;;;;;;13.87;8.77;;;4.50;99.90;;;;;;5067295;28;20455;-66
2021/12/08 08:09:23;;;;;;;11.60;8.80;;;4.50;99.90;;;;;;5067479;28;20451;-65
2021/12/08 08:11:55;;;;;;;10.90;9.07;;;4.50;99.90;;;;;;5067565;28;20451;-66
2021/12/08 08:14:27;;;;;;;10.70;7.57;;;4.50;99.90;;;;;;5067343;28;20447;-66
2021/12/08 08:16:57;;;;;;;11.57;7.53;;;4.60;99.90;;;;;;5067504;28;20549;-64
2021/12/08 08:19:29;;;;;;;8.30;7.50;;;4.60;99.90;;;;;;5067525;28;21048;-65
2021/12/08 08:22:03;;;;;;;8.30;7.10;;;4.60;99.90;;;;;;5067658;28;20467;-65
2021/12/08 08:24:30;;;;;;;10.90;8.40;;;4.60;99.90;;;;;;5067428;28;20452;-65
2021/12/08 08:27:00;;;;;;;9.47;7.80;;;4.60;99.90;;;;;;5067299;28;20443;-65
2021/12/08 08:29:29;;;;;;;9.03;7.10;;;4.60;99.90;;;;;;5067300;28;20809;-65
2021/12/08 08:31:59;;;;;;;9.13;6.80;;;4.70;99.90;;;;;;5067301;28;20443;-65
2021/12/08 08:34:28;;;;;;;8.70;6.80;;;4.70;99.90;;;;;;5067196;28;20512;-65
2021/12/08 08:36:55;;;;;;;9.33;7.60;;;4.70;99.90;;;;;;5066823;28;20920;-65
2021/12/08 08:39:24;;;;;;;7.00;6.30;;;4.80;99.90;;;;;;5067214;28;20448;-65
2021/12/08 08:41:55;;;;;;;8.77;6.87;;;4.80;99.90;;;;;;5067190;28;20973;-65
2021/12/08 08:44:27;;;;;;;9.73;6.80;;;4.90;99.90;;;;;;5070395;28;20457;-65
2021/12/08 08:46:57;;;;;;;9.87;8.10;;;4.90;99.90;;;;;;5071620;28;20460;-65
2021/12/08 08:49:27;;;;;;;7.73;6.93;;;4.90;99.90;;;;;;5071279;28;20453;-65
2021/12/08 08:52:01;;;;;;;11.40;8.30;;;4.90;99.90;;;;;;5071101;28;20450;-66
2021/12/08 08:54:31;;;;;;;7.80;6.90;;;4.80;99.90;;;;;;5070624;28;20479;-66
2021/12/08 08:57:05;;;;;;;8.70;7.50;;;4.90;99.90;;;;;;5069436;28;20455;-66
2021/12/08 08:59:40;;;;;;;11.53;8.53;;;4.90;99.90;;;;;;5071239;28;20467;-66
2021/12/08 09:02:09;;;;;;;12.57;8.67;;;4.90;99.90;;;;;;5071161;28;20451;-66
2021/12/08 09:04:43;;;;;;;10.03;8.50;;;5.00;99.90;;;;;;5070703;28;20630;-66
2021/12/08 09:07:15;;;;;;;11.97;9.00;;;5.00;99.90;;;;;;5070404;28;20501;-66
2021/12/08 09:09:45;;;;;;;10.90;8.80;;;5.00;99.90;;;;;;5070619;28;20466;-66
2021/12/08 09:12:16;;;;;;;12.30;8.80;;;5.00;99.90;;;;;;5071558;28;20489;-66
2021/12/08 09:14:49;;;;;;;10.73;9.37;;;5.00;99.90;;;;;;5070414;28;20969;-66
2021/12/08 09:17:20;;;;;;;10.77;8.43;;;5.10;99.90;;;;;;5070201;28;20447;-66
2021/12/08 09:19:52;;;;;;;12.90;9.33;;;5.10;99.90;;;;;;5070253;28;20474;-66
2021/12/08 09:22:27;;;;;;;12.30;10.40;;;5.10;99.90;;;;;;5070067;28;20451;-67
2021/12/08 09:24:59;;;;;;;10.70;9.60;;;5.10;99.90;;;;;;5070539;28;20503;-66
2021/12/08 09:27:34;;;;;;;11.73;9.50;;;5.10;99.90;;;;;;5070106;28;20451;-66
2021/12/08 09:30:06;;;;;;;10.70;8.60;;;5.20;99.90;;;;;;5070225;28;20490;-67
2021/12/08 09:32:41;;;;;;;12.90;10.70;;;5.20;99.90;;;;;;5069987;28;20536;-65
2021/12/08 09:35:13;;;;;;;10.07;8.97;;;5.20;99.90;;;;;;5070280;28;21018;-66
2021/12/08 09:37:46;;;;;;;11.67;8.97;;;5.20;99.90;;;;;;5070262;28;20439;-66
2021/12/08 09:40:19;;;;;;;16.20;9.67;;;5.20;99.90;;;;;;5070360;28;21164;-65
2021/12/08 09:42:49;;;;;;;11.77;8.80;;;5.30;99.90;;;;;;5070196;28;20451;-66
2021/12/08 09:45:19;;;;;;;10.40;9.40;;;5.30;99.90;;;;;;5070078;28;20448;-66
2021/12/08 09:47:48;;;;;;;9.60;8.60;;;5.40;99.90;;;;;;5070072;28;20448;-66
2021/12/08 09:50:16;;;;;;;10.80;9.47;;;5.40;99.90;;;;;;5069870;28;20982;-65
2021/12/08 09:52:44;;;;;;;9.17;8.10;;;5.50;99.90;;;;;;5070467;28;20440;-66
2021/12/08 09:55:13;;;;;;;11.33;8.30;;;5.50;99.90;;;;;;5069534;28;20480;-66
2021/12/08 09:57:40;;;;;;;9.90;8.43;;;5.50;99.90;;;;;;5069318;28;20459;-66
2021/12/08 10:00:09;;;;;;;9.13;7.73;;;5.40;99.90;;;;;;5069967;28;20462;-66
2021/12/08 10:02:37;;;;;;;10.53;7.40;;;5.50;99.90;;;;;;5069767;28;20454;-65
2021/12/08 10:05:09;;;;;;;10.73;7.90;;;5.50;99.90;;;;;;5069884;28;20493;-66
2021/12/08 10:07:37;;;;;;;10.70;8.93;;;5.50;99.90;;;;;;5069278;28;20473;-65
2021/12/08 10:10:06;;;;;;;9.60;8.47;;;5.60;99.90;;;;;;5069429;28;20463;-68
2021/12/08 10:12:35;;;;;;;9.83;8.83;;;5.70;99.90;;;;;;5069960;28;20571;-65
2021/12/08 10:15:02;;;;;;;9.83;7.90;;;5.80;99.90;;;;;;5069495;28;20953;-65
2021/12/08 10:17:29;;;;;;;9.57;8.17;;;5.80;99.90;;;;;;5069281;28;20443;-65
2021/12/08 10:20:14;;;;;;;9.40;8.47;;;5.90;99.90;;;;;;5069274;28;20464;-65
2021/12/08 10:22:42;;;;;;;11.50;9.03;;;6.00;99.90;;;;;;5068897;28;20459;-66
2021/12/08 10:25:12;;;;;;;9.97;8.33;;;6.00;99.90;;;;;;5069293;28;20443;-65
2021/12/08 10:28:06;;;;;;;10.33;8.27;;;6.10;99.90;;;;;;5068995;28;20443;-65
2021/12/08 10:30:37;;;;;;;10.17;8.43;;;6.10;99.90;;;;;;5069082;28;20463;-65
2021/12/08 10:33:11;;;;;;;10.20;8.47;;;6.20;99.90;;;;;;5069018;28;20447;-65
2021/12/08 10:35:48;;;;;;;9.63;8.40;;;6.20;99.90;;;;;;5068811;28;20483;-65
2021/12/08 10:38:19;;;;;;;10.30;7.40;;;6.30;99.90;;;;;;5068627;28;20443;-65
2021/12/08 10:41:01;;;;;;;9.33;7.40;;;6.20;99.90;;;;;;5068795;28;20505;-65
2021/12/08 10:43:29;;;;;;;10.30;8.37;;;6.20;99.90;;;;;;5068908;28;20448;-65
2021/12/08 10:46:05;;;;;;;8.30;7.07;;;6.20;99.90;;;;;;5068997;28;20448;-65
2021/12/08 10:48:40;;;;;;;7.50;6.70;;;6.20;99.90;;;;;;5068607;28;20450;-65
2021/12/08 10:54:27;;;;;;;8.40;7.33;;;6.10;99.90;;;;;;5068794;28;20423;-66
2021/12/08 10:56:56;;;;;;;9.23;7.03;;;6.20;99.90;;;;;;5068405;28;20927;-65
2021/12/08 10:59:24;;;;;;;8.60;7.70;;;6.20;99.90;;;;;;5068460;28;20448;-65
2021/12/08 11:01:53;;;;;;;8.37;7.50;;;6.30;99.90;;;;;;5068409;28;20474;-65
2021/12/08 11:04:28;;;;;;;10.73;7.57;;;6.30;99.90;;;;;;5068338;28;20454;-65
2021/12/08 11:07:06;;;;;;;13.40;8.30;;;6.30;99.90;;;;;;5067979;28;20447;-65
2021/12/08 11:09:40;;;;;;;7.13;6.43;;;6.30;99.90;;;;;;5068532;28;21170;-64
2021/12/08 11:12:08;;;;;;;7.97;7.17;;;6.20;99.90;;;;;;5068429;28;20454;-65
2021/12/08 11:14:44;;;;;;;8.50;6.50;;;6.30;99.90;;;;;;5068240;28;20458;-65
2021/12/08 11:17:25;;;;;;;8.23;6.40;;;6.30;99.90;;;;;;5068386;28;20529;-65
2021/12/08 11:20:16;;;;;;;8.63;7.60;;;6.40;99.90;;;;;;5068147;28;20857;-65
2021/12/08 11:22:48;;;;;;;9.67;7.13;;;6.50;99.90;;;;;;5068045;28;20455;-64
2021/12/08 11:25:22;;;;;;;7.20;6.30;;;6.50;99.90;;;;;;5068293;28;20452;-65
2021/12/08 11:27:49;;;;;;;7.50;6.70;;;6.60;99.90;;;;;;5067683;28;20454;-65
2021/12/08 11:30:19;;;;;;;8.27;7.47;;;6.60;99.90;;;;;;5067731;28;20468;-65
2021/12/08 11:32:46;;;;;;;7.87;6.87;;;6.60;99.90;;;;;;5067891;28;20452;-66
2021/12/08 11:35:20;;;;;;;7.60;6.67;;;6.70;99.90;;;;;;5067684;28;20443;-65
2021/12/08 11:37:59;;;;;;;8.47;6.70;;;6.60;99.90;;;;;;5067578;28;20508;-65
2021/12/08 11:40:26;;;;;;;6.83;5.93;;;6.70;99.90;;;;;;5067857;28;20497;-65
2021/12/08 11:42:53;;;;;;;10.63;8.10;;;6.70;99.90;;;;;;5067740;28;20448;-65
2021/12/08 11:45:22;;;;;;;9.63;7.50;;;6.70;99.90;;;;;;5067898;28;20454;-65
2021/12/08 11:47:48;;;;;;;6.60;5.90;;;6.70;99.90;;;;;;5067645;28;20455;-66
2021/12/08 11:50:19;;;;;;;6.93;5.70;;;6.70;99.90;;;;;;5067623;28;20467;-65
2021/12/08 11:52:53;;;;;;;7.13;5.70;;;6.70;99.90;;;;;;5067807;28;20830;-65
2021/12/08 11:55:24;;;;;;;9.70;6.40;;;6.70;99.90;;;;;;5067548;28;20450;-65
2021/12/08 11:57:55;;;;;;;7.60;6.40;;;6.70;99.90;;;;;;5067198;28;20483;-65
2021/12/08 12:00:26;;;;;;;7.60;6.80;;;6.80;99.90;;;;;;5067107;28;20820;-65
2021/12/08 12:02:58;;;;;;;8.13;6.30;;;6.80;99.90;;;;;;5067755;28;20450;-65
2021/12/08 12:05:27;;;;;;;6.77;5.70;;;6.90;99.90;;;;;;5067519;28;20443;-65
2021/12/08 12:07:56;;;;;;;7.90;6.20;;;7.00;99.90;;;;;;5067431;28;20451;-65
2021/12/08 12:10:25;;;;;;;6.93;5.73;;;7.00;99.90;;;;;;5067389;28;20470;-65
2021/12/08 12:12:52;;;;;;;8.20;6.20;;;7.00;99.90;;;;;;5067363;28;20960;-65
2021/12/08 12:15:22;;;;;;;6.97;6.27;;;6.90;99.90;;;;;;5067690;28;20450;-66
2021/12/08 12:17:49;;;;;;;8.77;6.40;;;6.80;99.90;;;;;;5068045;28;20475;-65
2021/12/08 12:20:21;;;;;;;8.20;6.97;;;6.80;99.90;;;;;;5071210;28;20469;-65
2021/12/08 12:23:20;;;;;;;8.57;7.10;;;6.80;99.90;;;;;;5071460;28;20455;-65
2021/12/08 12:26:03;;;;;;;9.37;6.83;;;6.70;99.90;;;;;;5056861;28;20463;-65
2021/12/08 12:28:57;;;;;;;7.83;7.03;;;6.60;99.90;;;;;;5071470;28;20486;-65
2021/12/08 12:31:28;;;;;;;9.00;6.63;;;6.50;99.90;;;;;;5071577;28;20472;-65
2021/12/08 12:33:55;;;;;;;9.33;8.43;;;6.50;99.90;;;;;;5071823;28;20455;-66
2021/12/08 12:36:27;;;;;;;9.60;8.70;;;6.50;99.90;;;;;;5071562;28;20499;-66
2021/12/08 12:39:09;;;;;;;8.73;7.77;;;6.50;99.90;;;;;;5071451;28;20447;-66
2021/12/08 12:41:37;;;;;;;8.73;7.83;;;6.30;99.90;;;;;;5071406;28;20462;-65
2021/12/08 12:44:17;;;;;;;10.83;8.30;;;6.30;99.90;;;;;;5071389;28;20446;-66
2021/12/08 12:47:20;;;;;;;10.83;7.97;;;6.20;99.90;;;;;;5071041;28;20443;-65
2021/12/08 12:49:48;;;;;;;10.67;8.33;;;6.10;99.90;;;;;;5061178;28;20471;-66
2021/12/08 12:52:17;;;;;;;9.23;8.33;;;6.10;99.90;;;;;;5068663;28;20454;-66
2021/12/08 12:54:46;;;;;;;12.43;8.83;;;6.10;99.90;;;;;;5064165;28;20443;-66
2021/12/08 12:57:14;;;;;;;9.47;8.20;;;6.10;99.90;;;;;;5060406;28;20492;-67
2021/12/08 12:59:44;;;;;;;10.40;8.77;;;6.10;99.90;;;;;;5067840;28;20840;-66
2021/12/08 13:02:14;;;;;;;9.93;8.90;;;6.10;99.90;;;;;;5070489;28;20496;-66
2021/12/08 13:04:53;;;;;;;9.23;8.33;;;6.20;99.90;;;;;;5070642;28;20452;-66
2021/12/08 13:07:20;;;;;;;14.87;9.53;;;6.20;99.90;;;;;;5070430;28;20439;-66
2021/12/08 13:09:51;;;;;;;13.30;9.97;;;6.30;99.90;;;;;;5070836;28;20479;-66
2021/12/08 13:12:20;;;;;;;11.93;9.73;;;6.30;99.90;;;;;;5066637;28;21230;-65
2021/12/08 13:14:49;;;;;;;11.50;10.30;;;6.40;99.90;;;;;;5068270;28;20456;-65
2021/12/08 13:17:23;;;;;;;10.10;9.03;;;6.40;99.90;;;;;;5069507;28;20852;-65
2021/12/08 13:19:54;;;;;;;9.80;8.80;;;6.30;99.90;;;;;;5069903;28;20977;-66
2021/12/08 13:22:44;;;;;;;11.40;9.57;;;6.20;99.90;;;;;;5070171;28;21357;-64
2021/12/08 13:25:48;;;;;;;11.33;8.43;;;6.20;99.90;;;;;;5069957;28;20536;-65
2021/12/08 13:28:22;;;;;;;12.03;10.20;;;6.20;99.90;;;;;;5069257;28;20447;-64
2021/12/08 13:30:55;;;;;;;9.63;8.63;;;6.20;99.90;;;;;;5067916;28;20572;-65
2021/12/08 13:33:34;;;;;;;15.10;9.30;;;6.30;99.90;;;;;;5069934;28;20443;-65
2021/12/08 13:36:18;;;;;;;10.67;8.60;;;6.40;99.90;;;;;;5069555;28;20443;-64
2021/12/08 13:38:45;;;;;;;12.80;8.83;;;6.40;99.90;;;;;;5069672;28;20474;-65
2021/12/08 13:41:17;;;;;;;12.30;7.80;;;6.40;99.90;;;;;;5069530;28;20467;-66